Ana Sayfa
METAR-TAF:

METAR-TAF

Havaalanları :

Maiduguri, Nijerya

Enlem: 11-51N, Boylam: 013-05E, yükseklik: 354 m

METAR: eksik

Saat: 15:58 (14:58 UTC)

Tahmin

Rapor saat 11:00 UTC de 3 saat ve 58 dakika önce yapıldı.
Ayın 25'si saat 12 UTC'den ayın 26'si saat 18 UTC'ye kadar geçerli Tahmin
Rüzgar güney/güneybatıdan 10 kt
Görüş mesafesi 10 km veya daha fazla
1500 m altında bulut yok ve kümülonimbus yok
Geçici
ayın 25'si saat 16 UTC'den ayın 25'si saat 21 UTC'ye kadar
1300 ft yükseklikte parçalı bulutlu
2000 ft yükseklikte az bulutlu, Kümülonimbus.
gök gürültülü fırtına
Geçici
ayın 25'si saat 21 UTC'den ayın 26'si saat 02 UTC'ye kadar
Rüzgar kuzeydoğudan 15 kt ve 35 kt'a kadar ani rüzgarlar
Görüş mesafesi: 5000 m
1200 ft yükseklikte parçalı çok bulutlu
1900 ft yükseklikte az bulutlu, Kümülonimbus.
gök gürültülü fırtına, yağmur,

TAF: DNMA 251100Z 2512/2618 21010KT CAVOK TEMPO 2516/2521 TS SCT013 FEW020CB TEMPO 2521/2602 04015G35KT 5000 TSRA BKN012 FEW019CB

4.000'den fazla havaalanı için hava durumu gözlemleri ve tahminleri (METAR ve TAF raporları).

Kullanılabilir istasyonlar harita üzerinde sarı ve kırmızı noktalarla gösterilir.

İstasyonun adını görmek için fareyi noktanın üzerinde gezdirin.

Sonrasında hava gözlem ve tahminlerini görmek için tıklayın.

Haritayı değiştirmek için: yaklaştırmak için siyah artı işaretli yeşil düğmeye ve uzaklaştırmak için de eksi işaretli düğmeye hızla tıklayın; bitişik haritalar için yeşil okları kullanın.


METAR-TAF: